Ana Sayfa
METAR-TAF:

METAR-TAF

Havaalanları :

Brookhaven Airport

Shirley, New York, Amerika Birleşik Devletleri

Enlem: 40-49-18N, Boylam: 072-52-08W, yükseklik: 25 m

Güncel hava durumu gözlemi

Rapor saat 14:56 UTC de 37 dakika önce yapıldı.
Rüzgar kuzeydan 15 kt ve 25 kt'a kadar ani rüzgarlar
Sıcaklık -4°C
Nem 46%
Basınç 1024 hPa
Görüş mesafesi: 16.1 km
Açık gökyüzü

METAR: KHWV 201456Z AUTO 35015G25KT 10SM CLR M04/M14 A3023 RMK AO2 SLP237 T10441139 51024 TSNO

Saat: 10:33 (15:33 UTC)


TAF: eksik

4.000'den fazla havaalanı için hava durumu gözlemleri ve tahminleri (METAR ve TAF raporları).

Kullanılabilir istasyonlar harita üzerinde sarı ve kırmızı noktalarla gösterilir.

İstasyonun adını görmek için fareyi noktanın üzerinde gezdirin.

Sonrasında hava gözlem ve tahminlerini görmek için tıklayın.

Haritayı değiştirmek için: yaklaştırmak için siyah artı işaretli yeşil düğmeye ve uzaklaştırmak için de eksi işaretli düğmeye hızla tıklayın; bitişik haritalar için yeşil okları kullanın.


METAR-TAF: